sensor_id;sensor_type;location;lat;lon;timestamp;P1;durP1;ratioP1;P2;durP2;ratioP2
38901;SDS011;24661;53.566;9.910;2023-02-23T00:03:43;37.23;;;18.37;;
38901;SDS011;24661;53.566;9.910;2023-02-23T00:06:09;31.37;;;15.83;;
38901;SDS011;24661;53.566;9.910;2023-02-23T00:08:36;34.80;;;17.37;;
38901;SDS011;24661;53.566;9.910;2023-02-23T00:11:06;32.60;;;17.20;;
38901;SDS011;24661;53.566;9.910;2023-02-23T00:13:35;30.60;;;16.50;;
38901;SDS011;24661;53.566;9.910;2023-02-23T00:16:06;32.53;;;16.80;;
38901;SDS011;24661;53.566;9.910;2023-02-23T00:18:33;31.27;;;17.27;;
38901;SDS011;24661;53.566;9.910;2023-02-23T00:21:12;30.67;;;16.17;;
38901;SDS011;24661;53.566;9.910;2023-02-23T00:23:52;31.60;;;16.83;;
38901;SDS011;24661;53.566;9.910;2023-02-23T00:26:20;38.03;;;17.40;;
38901;SDS011;24661;53.566;9.910;2023-02-23T00:28:51;34.90;;;17.40;;
38901;SDS011;24661;53.566;9.910;2023-02-23T00:31:18;33.57;;;17.13;;
38901;SDS011;24661;53.566;9.910;2023-02-23T00:33:49;31.00;;;17.60;;
38901;SDS011;24661;53.566;9.910;2023-02-23T00:36:19;35.07;;;17.90;;
38901;SDS011;24661;53.566;9.910;2023-02-23T00:38:46;34.00;;;16.97;;
38901;SDS011;24661;53.566;9.910;2023-02-23T00:41:17;33.63;;;17.17;;
38901;SDS011;24661;53.566;9.910;2023-02-23T00:43:46;29.87;;;15.80;;
38901;SDS011;24661;53.566;9.910;2023-02-23T00:46:13;34.77;;;17.43;;
38901;SDS011;24661;53.566;9.910;2023-02-23T00:48:42;32.90;;;16.57;;
38901;SDS011;24661;53.566;9.910;2023-02-23T00:51:09;35.17;;;16.90;;
38901;SDS011;24661;53.566;9.910;2023-02-23T00:53:36;33.93;;;18.13;;
38901;SDS011;24661;53.566;9.910;2023-02-23T00:56:05;34.40;;;17.60;;
38901;SDS011;24661;53.566;9.910;2023-02-23T00:58:32;35.30;;;17.07;;
38901;SDS011;24661;53.566;9.910;2023-02-23T01:00:58;29.30;;;16.00;;
38901;SDS011;24661;53.566;9.910;2023-02-23T01:03:25;32.77;;;17.00;;
38901;SDS011;24661;53.566;9.910;2023-02-23T01:05:51;32.90;;;17.33;;
38901;SDS011;24661;53.566;9.910;2023-02-23T01:08:19;32.17;;;16.80;;
38901;SDS011;24661;53.566;9.910;2023-02-23T01:10:46;37.33;;;17.93;;
38901;SDS011;24661;53.566;9.910;2023-02-23T01:13:18;32.73;;;17.20;;
38901;SDS011;24661;53.566;9.910;2023-02-23T01:15:44;37.07;;;18.03;;
38901;SDS011;24661;53.566;9.910;2023-02-23T01:18:12;37.83;;;18.90;;
38901;SDS011;24661;53.566;9.910;2023-02-23T01:20:38;32.37;;;16.97;;
38901;SDS011;24661;53.566;9.910;2023-02-23T01:23:07;35.43;;;17.47;;
38901;SDS011;24661;53.566;9.910;2023-02-23T01:25:35;37.23;;;18.53;;
38901;SDS011;24661;53.566;9.910;2023-02-23T01:28:02;38.33;;;18.73;;
38901;SDS011;24661;53.566;9.910;2023-02-23T01:30:28;37.73;;;18.87;;
38901;SDS011;24661;53.566;9.910;2023-02-23T01:32:53;34.43;;;17.17;;
38901;SDS011;24661;53.566;9.910;2023-02-23T01:35:19;31.70;;;17.03;;
38901;SDS011;24661;53.566;9.910;2023-02-23T01:37:46;38.33;;;17.70;;
38901;SDS011;24661;53.566;9.910;2023-02-23T01:40:15;34.07;;;17.90;;
38901;SDS011;24661;53.566;9.910;2023-02-23T01:42:55;38.93;;;18.10;;
38901;SDS011;24661;53.566;9.910;2023-02-23T01:45:36;36.47;;;17.47;;
38901;SDS011;24661;53.566;9.910;2023-02-23T01:48:17;37.47;;;17.53;;
38901;SDS011;24661;53.566;9.910;2023-02-23T01:50:50;33.07;;;17.70;;
38901;SDS011;24661;53.566;9.910;2023-02-23T01:53:19;37.93;;;18.97;;
38901;SDS011;24661;53.566;9.910;2023-02-23T01:55:47;35.80;;;17.57;;
38901;SDS011;24661;53.566;9.910;2023-02-23T01:58:15;38.10;;;19.60;;
38901;SDS011;24661;53.566;9.910;2023-02-23T02:00:50;37.17;;;18.10;;
38901;SDS011;24661;53.566;9.910;2023-02-23T02:03:28;39.33;;;17.33;;
38901;SDS011;24661;53.566;9.910;2023-02-23T02:05:59;35.50;;;17.13;;
38901;SDS011;24661;53.566;9.910;2023-02-23T02:08:28;32.07;;;15.83;;
38901;SDS011;24661;53.566;9.910;2023-02-23T02:10:55;33.30;;;17.20;;
38901;SDS011;24661;53.566;9.910;2023-02-23T02:13:22;40.13;;;18.33;;
38901;SDS011;24661;53.566;9.910;2023-02-23T02:18:43;35.80;;;18.23;;
38901;SDS011;24661;53.566;9.910;2023-02-23T02:24:31;32.03;;;18.00;;
38901;SDS011;24661;53.566;9.910;2023-02-23T02:39:14;38.20;;;18.13;;
38901;SDS011;24661;53.566;9.910;2023-02-23T02:41:50;31.40;;;16.23;;
38901;SDS011;24661;53.566;9.910;2023-02-23T02:47:05;33.43;;;17.57;;
38901;SDS011;24661;53.566;9.910;2023-02-23T02:49:57;34.47;;;16.77;;
38901;SDS011;24661;53.566;9.910;2023-02-23T02:52:46;31.10;;;16.07;;
38901;SDS011;24661;53.566;9.910;2023-02-23T02:55:22;32.47;;;18.03;;
38901;SDS011;24661;53.566;9.910;2023-02-23T02:57:52;35.40;;;18.17;;
38901;SDS011;24661;53.566;9.910;2023-02-23T03:00:30;37.00;;;17.77;;
38901;SDS011;24661;53.566;9.910;2023-02-23T03:03:35;34.93;;;17.10;;
38901;SDS011;24661;53.566;9.910;2023-02-23T03:15:35;43.60;;;19.70;;
38901;SDS011;24661;53.566;9.910;2023-02-23T03:37:22;40.40;;;17.93;;
38901;SDS011;24661;53.566;9.910;2023-02-23T03:40:16;39.23;;;18.53;;
38901;SDS011;24661;53.566;9.910;2023-02-23T03:43:08;39.53;;;18.63;;
38901;SDS011;24661;53.566;9.910;2023-02-23T03:45:57;34.77;;;18.90;;
38901;SDS011;24661;53.566;9.910;2023-02-23T03:48:45;39.83;;;17.23;;
38901;SDS011;24661;53.566;9.910;2023-02-23T03:51:31;36.17;;;18.60;;
38901;SDS011;24661;53.566;9.910;2023-02-23T03:54:20;31.60;;;17.53;;
38901;SDS011;24661;53.566;9.910;2023-02-23T03:57:11;34.47;;;17.83;;
38901;SDS011;24661;53.566;9.910;2023-02-23T04:00:00;34.10;;;17.70;;
38901;SDS011;24661;53.566;9.910;2023-02-23T04:02:48;35.07;;;16.63;;
38901;SDS011;24661;53.566;9.910;2023-02-23T04:05:36;37.70;;;18.33;;
38901;SDS011;24661;53.566;9.910;2023-02-23T04:08:24;36.20;;;18.33;;
38901;SDS011;24661;53.566;9.910;2023-02-23T04:11:18;33.50;;;18.30;;
38901;SDS011;24661;53.566;9.910;2023-02-23T04:14:15;37.53;;;16.50;;
38901;SDS011;24661;53.566;9.910;2023-02-23T04:16:45;46.63;;;20.83;;
38901;SDS011;24661;53.566;9.910;2023-02-23T04:19:12;36.27;;;18.97;;
38901;SDS011;24661;53.566;9.910;2023-02-23T04:21:37;45.47;;;19.83;;
38901;SDS011;24661;53.566;9.910;2023-02-23T04:24:03;40.77;;;19.00;;
38901;SDS011;24661;53.566;9.910;2023-02-23T04:26:29;32.20;;;16.77;;
38901;SDS011;24661;53.566;9.910;2023-02-23T04:28:54;41.77;;;18.43;;
38901;SDS011;24661;53.566;9.910;2023-02-23T04:31:20;35.87;;;18.13;;
38901;SDS011;24661;53.566;9.910;2023-02-23T04:33:48;36.17;;;18.07;;
38901;SDS011;24661;53.566;9.910;2023-02-23T04:36:14;40.33;;;18.23;;
38901;SDS011;24661;53.566;9.910;2023-02-23T04:38:39;37.93;;;17.53;;
38901;SDS011;24661;53.566;9.910;2023-02-23T04:41:05;34.07;;;16.43;;
38901;SDS011;24661;53.566;9.910;2023-02-23T04:43:30;35.17;;;18.23;;
38901;SDS011;24661;53.566;9.910;2023-02-23T04:45:56;36.80;;;19.00;;
38901;SDS011;24661;53.566;9.910;2023-02-23T04:48:21;34.63;;;17.50;;
38901;SDS011;24661;53.566;9.910;2023-02-23T04:50:51;32.93;;;17.80;;
38901;SDS011;24661;53.566;9.910;2023-02-23T04:53:19;32.77;;;16.07;;
38901;SDS011;24661;53.566;9.910;2023-02-23T04:55:45;33.63;;;18.07;;
38901;SDS011;24661;53.566;9.910;2023-02-23T04:58:11;36.03;;;18.83;;
38901;SDS011;24661;53.566;9.910;2023-02-23T05:00:37;32.67;;;17.03;;
38901;SDS011;24661;53.566;9.910;2023-02-23T05:03:04;34.20;;;18.63;;
38901;SDS011;24661;53.566;9.910;2023-02-23T05:05:29;36.27;;;17.93;;
38901;SDS011;24661;53.566;9.910;2023-02-23T05:07:55;44.23;;;20.53;;
38901;SDS011;24661;53.566;9.910;2023-02-23T05:10:21;36.33;;;18.83;;
38901;SDS011;24661;53.566;9.910;2023-02-23T05:12:46;33.73;;;17.50;;
38901;SDS011;24661;53.566;9.910;2023-02-23T05:15:12;42.93;;;20.53;;
38901;SDS011;24661;53.566;9.910;2023-02-23T05:17:38;42.87;;;19.20;;
38901;SDS011;24661;53.566;9.910;2023-02-23T05:20:08;51.23;;;21.80;;
38901;SDS011;24661;53.566;9.910;2023-02-23T05:22:35;47.83;;;21.23;;
38901;SDS011;24661;53.566;9.910;2023-02-23T05:25:01;48.07;;;20.17;;
38901;SDS011;24661;53.566;9.910;2023-02-23T05:27:28;44.30;;;21.73;;
38901;SDS011;24661;53.566;9.910;2023-02-23T05:29:54;52.83;;;22.10;;
38901;SDS011;24661;53.566;9.910;2023-02-23T05:32:19;44.80;;;20.23;;
38901;SDS011;24661;53.566;9.910;2023-02-23T05:34:45;41.47;;;19.60;;
38901;SDS011;24661;53.566;9.910;2023-02-23T05:37:11;45.30;;;20.50;;
38901;SDS011;24661;53.566;9.910;2023-02-23T05:39:37;45.17;;;20.17;;
38901;SDS011;24661;53.566;9.910;2023-02-23T05:42:02;43.40;;;21.13;;
38901;SDS011;24661;53.566;9.910;2023-02-23T05:44:28;41.97;;;19.33;;
38901;SDS011;24661;53.566;9.910;2023-02-23T05:46:53;49.83;;;23.30;;
38901;SDS011;24661;53.566;9.910;2023-02-23T05:49:19;43.80;;;21.03;;
38901;SDS011;24661;53.566;9.910;2023-02-23T05:51:44;41.90;;;21.33;;
38901;SDS011;24661;53.566;9.910;2023-02-23T05:54:10;42.33;;;19.77;;
38901;SDS011;24661;53.566;9.910;2023-02-23T05:56:36;41.97;;;20.13;;
38901;SDS011;24661;53.566;9.910;2023-02-23T05:59:01;45.90;;;21.60;;
38901;SDS011;24661;53.566;9.910;2023-02-23T06:01:29;42.10;;;20.83;;
38901;SDS011;24661;53.566;9.910;2023-02-23T06:03:54;40.03;;;18.93;;
38901;SDS011;24661;53.566;9.910;2023-02-23T06:06:20;46.13;;;20.73;;
38901;SDS011;24661;53.566;9.910;2023-02-23T06:08:48;46.97;;;21.50;;
38901;SDS011;24661;53.566;9.910;2023-02-23T06:11:13;43.90;;;20.67;;
38901;SDS011;24661;53.566;9.910;2023-02-23T06:13:39;46.13;;;21.03;;
38901;SDS011;24661;53.566;9.910;2023-02-23T06:16:05;40.23;;;20.03;;
38901;SDS011;24661;53.566;9.910;2023-02-23T06:18:32;45.93;;;21.33;;
38901;SDS011;24661;53.566;9.910;2023-02-23T06:20:59;52.37;;;21.47;;
38901;SDS011;24661;53.566;9.910;2023-02-23T06:23:26;47.47;;;24.53;;
38901;SDS011;24661;53.566;9.910;2023-02-23T06:25:52;48.77;;;22.97;;
38901;SDS011;24661;53.566;9.910;2023-02-23T06:28:18;48.70;;;21.43;;
38901;SDS011;24661;53.566;9.910;2023-02-23T06:30:43;49.00;;;22.13;;
38901;SDS011;24661;53.566;9.910;2023-02-23T06:33:10;48.13;;;20.90;;
38901;SDS011;24661;53.566;9.910;2023-02-23T06:35:36;59.63;;;23.90;;
38901;SDS011;24661;53.566;9.910;2023-02-23T06:38:02;61.00;;;23.43;;
38901;SDS011;24661;53.566;9.910;2023-02-23T06:40:29;51.67;;;23.83;;
38901;SDS011;24661;53.566;9.910;2023-02-23T06:42:55;47.43;;;22.30;;
38901;SDS011;24661;53.566;9.910;2023-02-23T06:45:21;51.63;;;22.60;;
38901;SDS011;24661;53.566;9.910;2023-02-23T06:47:46;43.27;;;21.00;;
38901;SDS011;24661;53.566;9.910;2023-02-23T06:50:12;47.97;;;23.00;;
38901;SDS011;24661;53.566;9.910;2023-02-23T06:52:39;54.83;;;24.23;;
38901;SDS011;24661;53.566;9.910;2023-02-23T06:55:05;48.00;;;23.00;;
38901;SDS011;24661;53.566;9.910;2023-02-23T06:57:31;50.33;;;22.87;;
38901;SDS011;24661;53.566;9.910;2023-02-23T06:59:57;46.37;;;21.07;;
38901;SDS011;24661;53.566;9.910;2023-02-23T07:02:23;54.63;;;24.10;;
38901;SDS011;24661;53.566;9.910;2023-02-23T07:04:48;58.50;;;22.60;;
38901;SDS011;24661;53.566;9.910;2023-02-23T07:07:14;65.23;;;25.83;;
38901;SDS011;24661;53.566;9.910;2023-02-23T07:09:40;58.87;;;24.57;;
38901;SDS011;24661;53.566;9.910;2023-02-23T07:12:06;55.87;;;24.20;;
38901;SDS011;24661;53.566;9.910;2023-02-23T07:14:33;66.80;;;25.57;;
38901;SDS011;24661;53.566;9.910;2023-02-23T07:16:58;62.73;;;25.60;;
38901;SDS011;24661;53.566;9.910;2023-02-23T07:19:24;82.47;;;32.47;;
38901;SDS011;24661;53.566;9.910;2023-02-23T07:21:50;72.17;;;28.57;;
38901;SDS011;24661;53.566;9.910;2023-02-23T07:24:15;74.80;;;29.63;;
38901;SDS011;24661;53.566;9.910;2023-02-23T07:26:41;78.83;;;28.63;;
38901;SDS011;24661;53.566;9.910;2023-02-23T07:29:11;78.27;;;29.20;;
38901;SDS011;24661;53.566;9.910;2023-02-23T07:31:37;62.70;;;26.27;;
38901;SDS011;24661;53.566;9.910;2023-02-23T07:34:03;69.97;;;28.63;;
38901;SDS011;24661;53.566;9.910;2023-02-23T07:36:29;65.77;;;28.43;;
38901;SDS011;24661;53.566;9.910;2023-02-23T07:38:55;71.50;;;27.97;;
38901;SDS011;24661;53.566;9.910;2023-02-23T07:41:21;75.60;;;28.33;;
38901;SDS011;24661;53.566;9.910;2023-02-23T07:43:47;71.97;;;27.33;;
38901;SDS011;24661;53.566;9.910;2023-02-23T07:46:13;66.03;;;26.20;;
38901;SDS011;24661;53.566;9.910;2023-02-23T07:48:39;73.67;;;28.87;;
38901;SDS011;24661;53.566;9.910;2023-02-23T07:51:09;68.60;;;26.03;;
38901;SDS011;24661;53.566;9.910;2023-02-23T07:53:39;71.17;;;27.00;;
38901;SDS011;24661;53.566;9.910;2023-02-23T07:56:06;61.03;;;26.67;;
38901;SDS011;24661;53.566;9.910;2023-02-23T07:58:34;63.53;;;26.13;;
38901;SDS011;24661;53.566;9.910;2023-02-23T08:01:07;75.20;;;29.67;;
38901;SDS011;24661;53.566;9.910;2023-02-23T08:03:33;67.73;;;26.77;;
38901;SDS011;24661;53.566;9.910;2023-02-23T08:05:59;74.47;;;28.80;;
38901;SDS011;24661;53.566;9.910;2023-02-23T08:08:25;63.93;;;25.43;;
38901;SDS011;24661;53.566;9.910;2023-02-23T08:10:57;64.03;;;26.00;;
38901;SDS011;24661;53.566;9.910;2023-02-23T08:13:24;63.83;;;26.47;;
38901;SDS011;24661;53.566;9.910;2023-02-23T08:15:50;63.93;;;25.83;;
38901;SDS011;24661;53.566;9.910;2023-02-23T08:18:15;60.57;;;25.40;;
38901;SDS011;24661;53.566;9.910;2023-02-23T08:20:41;64.73;;;26.13;;
38901;SDS011;24661;53.566;9.910;2023-02-23T08:23:07;58.07;;;25.27;;
38901;SDS011;24661;53.566;9.910;2023-02-23T08:25:34;65.33;;;27.10;;
38901;SDS011;24661;53.566;9.910;2023-02-23T08:27:59;62.00;;;25.20;;
38901;SDS011;24661;53.566;9.910;2023-02-23T08:30:28;58.40;;;25.07;;
38901;SDS011;24661;53.566;9.910;2023-02-23T08:32:55;53.93;;;24.93;;
38901;SDS011;24661;53.566;9.910;2023-02-23T08:35:20;55.30;;;24.10;;
38901;SDS011;24661;53.566;9.910;2023-02-23T08:37:46;58.97;;;25.30;;
38901;SDS011;24661;53.566;9.910;2023-02-23T08:40:12;60.73;;;25.20;;
38901;SDS011;24661;53.566;9.910;2023-02-23T08:42:39;56.60;;;24.93;;
38901;SDS011;24661;53.566;9.910;2023-02-23T08:45:05;62.23;;;25.93;;
38901;SDS011;24661;53.566;9.910;2023-02-23T08:47:32;57.73;;;26.63;;
38901;SDS011;24661;53.566;9.910;2023-02-23T08:49:58;61.93;;;25.37;;
38901;SDS011;24661;53.566;9.910;2023-02-23T08:52:24;58.03;;;26.43;;
38901;SDS011;24661;53.566;9.910;2023-02-23T08:54:49;62.70;;;26.87;;
38901;SDS011;24661;53.566;9.910;2023-02-23T08:57:15;55.50;;;25.57;;
38901;SDS011;24661;53.566;9.910;2023-02-23T08:59:41;55.83;;;26.67;;
38901;SDS011;24661;53.566;9.910;2023-02-23T09:02:10;70.50;;;29.83;;
38901;SDS011;24661;53.566;9.910;2023-02-23T09:04:37;65.97;;;29.80;;
38901;SDS011;24661;53.566;9.910;2023-02-23T09:07:06;71.23;;;31.43;;
38901;SDS011;24661;53.566;9.910;2023-02-23T09:09:32;72.43;;;31.67;;
38901;SDS011;24661;53.566;9.910;2023-02-23T09:11:58;75.77;;;32.30;;
38901;SDS011;24661;53.566;9.910;2023-02-23T09:14:24;82.80;;;33.20;;
38901;SDS011;24661;53.566;9.910;2023-02-23T09:16:50;79.23;;;33.33;;
38901;SDS011;24661;53.566;9.910;2023-02-23T09:19:16;74.13;;;31.70;;
38901;SDS011;24661;53.566;9.910;2023-02-23T09:21:42;83.97;;;33.83;;
38901;SDS011;24661;53.566;9.910;2023-02-23T09:24:08;84.63;;;33.30;;
38901;SDS011;24661;53.566;9.910;2023-02-23T09:26:33;82.53;;;33.47;;
38901;SDS011;24661;53.566;9.910;2023-02-23T09:29:04;86.27;;;34.93;;
38901;SDS011;24661;53.566;9.910;2023-02-23T09:31:30;83.10;;;33.40;;
38901;SDS011;24661;53.566;9.910;2023-02-23T09:33:57;87.57;;;33.60;;
38901;SDS011;24661;53.566;9.910;2023-02-23T09:36:24;115.50;;;48.67;;
38901;SDS011;24661;53.566;9.910;2023-02-23T09:38:51;100.40;;;37.20;;
38901;SDS011;24661;53.566;9.910;2023-02-23T09:47:08;119.07;;;40.33;;
38901;SDS011;24661;53.566;9.910;2023-02-23T09:49:48;116.00;;;41.37;;
38901;SDS011;24661;53.566;9.910;2023-02-23T09:52:20;122.20;;;42.40;;
38901;SDS011;24661;53.566;9.910;2023-02-23T09:54:49;114.07;;;42.40;;
38901;SDS011;24661;53.566;9.910;2023-02-23T09:57:16;117.37;;;42.33;;
38901;SDS011;24661;53.566;9.910;2023-02-23T09:59:48;107.70;;;39.13;;
38901;SDS011;24661;53.566;9.910;2023-02-23T10:04:46;109.13;;;40.07;;
38901;SDS011;24661;53.566;9.910;2023-02-23T10:07:22;121.77;;;43.23;;
38901;SDS011;24661;53.566;9.910;2023-02-23T10:10:01;117.40;;;42.20;;
38901;SDS011;24661;53.566;9.910;2023-02-23T10:21:02;124.57;;;43.53;;
38901;SDS011;24661;53.566;9.910;2023-02-23T10:26:06;105.63;;;38.03;;
38901;SDS011;24661;53.566;9.910;2023-02-23T10:28:39;115.83;;;40.13;;
38901;SDS011;24661;53.566;9.910;2023-02-23T10:31:18;102.00;;;38.37;;
38901;SDS011;24661;53.566;9.910;2023-02-23T10:33:52;113.90;;;39.37;;
38901;SDS011;24661;53.566;9.910;2023-02-23T10:36:28;108.97;;;39.90;;
38901;SDS011;24661;53.566;9.910;2023-02-23T10:39:01;107.70;;;39.83;;
38901;SDS011;24661;53.566;9.910;2023-02-23T10:41:32;115.60;;;40.00;;
38901;SDS011;24661;53.566;9.910;2023-02-23T10:43:59;119.07;;;39.37;;
38901;SDS011;24661;53.566;9.910;2023-02-23T10:46:26;112.90;;;40.20;;
38901;SDS011;24661;53.566;9.910;2023-02-23T10:48:59;117.10;;;39.13;;
38901;SDS011;24661;53.566;9.910;2023-02-23T10:51:26;101.10;;;35.67;;
38901;SDS011;24661;53.566;9.910;2023-02-23T10:53:56;105.87;;;39.57;;
38901;SDS011;24661;53.566;9.910;2023-02-23T10:56:22;120.40;;;37.90;;
38901;SDS011;24661;53.566;9.910;2023-02-23T10:58:55;116.80;;;41.30;;
38901;SDS011;24661;53.566;9.910;2023-02-23T11:01:33;97.30;;;34.87;;
38901;SDS011;24661;53.566;9.910;2023-02-23T11:06:51;99.13;;;35.80;;
38901;SDS011;24661;53.566;9.910;2023-02-23T11:09:38;105.93;;;38.33;;
38901;SDS011;24661;53.566;9.910;2023-02-23T11:12:24;96.77;;;35.13;;
38901;SDS011;24661;53.566;9.910;2023-02-23T11:14:54;99.53;;;35.23;;
38901;SDS011;24661;53.566;9.910;2023-02-23T11:17:31;86.57;;;31.80;;
38901;SDS011;24661;53.566;9.910;2023-02-23T11:20:09;81.30;;;32.27;;
38901;SDS011;24661;53.566;9.910;2023-02-23T11:23:07;86.27;;;31.83;;
38901;SDS011;24661;53.566;9.910;2023-02-23T11:25:34;80.83;;;32.87;;
38901;SDS011;24661;53.566;9.910;2023-02-23T11:28:01;83.97;;;32.37;;
38901;SDS011;24661;53.566;9.910;2023-02-23T11:30:30;82.77;;;32.07;;
38901;SDS011;24661;53.566;9.910;2023-02-23T11:33:01;91.83;;;31.60;;
38901;SDS011;24661;53.566;9.910;2023-02-23T11:35:34;88.03;;;32.60;;
38901;SDS011;24661;53.566;9.910;2023-02-23T11:41:00;92.30;;;34.43;;
38901;SDS011;24661;53.566;9.910;2023-02-23T11:43:28;76.97;;;30.50;;
38901;SDS011;24661;53.566;9.910;2023-02-23T11:45:54;85.53;;;31.73;;
38901;SDS011;24661;53.566;9.910;2023-02-23T11:48:25;88.13;;;30.17;;
38901;SDS011;24661;53.566;9.910;2023-02-23T11:50:56;76.93;;;29.50;;
38901;SDS011;24661;53.566;9.910;2023-02-23T11:53:27;78.90;;;29.30;;
38901;SDS011;24661;53.566;9.910;2023-02-23T11:56:00;78.40;;;30.60;;
38901;SDS011;24661;53.566;9.910;2023-02-23T11:58:41;71.27;;;29.87;;
38901;SDS011;24661;53.566;9.910;2023-02-23T12:01:14;77.70;;;29.40;;
38901;SDS011;24661;53.566;9.910;2023-02-23T12:03:49;80.93;;;30.53;;
38901;SDS011;24661;53.566;9.910;2023-02-23T12:06:31;73.53;;;29.63;;
38901;SDS011;24661;53.566;9.910;2023-02-23T12:09:11;70.77;;;28.77;;
38901;SDS011;24661;53.566;9.910;2023-02-23T12:11:48;87.10;;;31.97;;
38901;SDS011;24661;53.566;9.910;2023-02-23T12:14:29;69.90;;;29.23;;
38901;SDS011;24661;53.566;9.910;2023-02-23T12:17:07;71.10;;;29.50;;
38901;SDS011;24661;53.566;9.910;2023-02-23T12:19:46;70.17;;;25.77;;
38901;SDS011;24661;53.566;9.910;2023-02-23T12:24:50;73.57;;;27.83;;
38901;SDS011;24661;53.566;9.910;2023-02-23T12:30:39;75.27;;;29.50;;
38901;SDS011;24661;53.566;9.910;2023-02-23T12:32:48;67.93;;;26.53;;
38901;SDS011;24661;53.566;9.910;2023-02-23T12:38:34;80.80;;;28.97;;
38901;SDS011;24661;53.566;9.910;2023-02-23T12:40:43;73.30;;;27.97;;
38901;SDS011;24661;53.566;9.910;2023-02-23T12:43:20;75.03;;;28.90;;
38901;SDS011;24661;53.566;9.910;2023-02-23T12:45:55;71.50;;;27.50;;
38901;SDS011;24661;53.566;9.910;2023-02-23T12:51:05;80.83;;;29.50;;
38901;SDS011;24661;53.566;9.910;2023-02-23T12:53:42;74.63;;;29.03;;
38901;SDS011;24661;53.566;9.910;2023-02-23T13:02:01;75.30;;;27.93;;
38901;SDS011;24661;53.566;9.910;2023-02-23T13:05:25;70.53;;;27.43;;
38901;SDS011;24661;53.566;9.910;2023-02-23T13:07:37;70.73;;;28.60;;
38901;SDS011;24661;53.566;9.910;2023-02-23T13:10:21;69.80;;;27.10;;
38901;SDS011;24661;53.566;9.910;2023-02-23T13:24:06;74.97;;;28.07;;
38901;SDS011;24661;53.566;9.910;2023-02-23T13:26:44;70.90;;;27.10;;
38901;SDS011;24661;53.566;9.910;2023-02-23T13:31:59;70.00;;;26.67;;
38901;SDS011;24661;53.566;9.910;2023-02-23T13:34:27;66.67;;;24.40;;
38901;SDS011;24661;53.566;9.910;2023-02-23T13:36:57;70.70;;;26.03;;
38901;SDS011;24661;53.566;9.910;2023-02-23T13:39:30;66.50;;;25.20;;
38901;SDS011;24661;53.566;9.910;2023-02-23T13:50:04;50.20;;;21.63;;
38901;SDS011;24661;53.566;9.910;2023-02-23T13:52:51;60.97;;;21.57;;
38901;SDS011;24661;53.566;9.910;2023-02-23T13:58:12;47.93;;;18.00;;
38901;SDS011;24661;53.566;9.910;2023-02-23T14:00:40;47.07;;;20.13;;
38901;SDS011;24661;53.566;9.910;2023-02-23T14:03:07;53.97;;;19.60;;
38901;SDS011;24661;53.566;9.910;2023-02-23T14:05:53;45.50;;;19.67;;
38901;SDS011;24661;53.566;9.910;2023-02-23T14:08:36;45.03;;;17.70;;
38901;SDS011;24661;53.566;9.910;2023-02-23T14:11:03;45.80;;;18.70;;
38901;SDS011;24661;53.566;9.910;2023-02-23T14:13:30;40.37;;;16.40;;
38901;SDS011;24661;53.566;9.910;2023-02-23T14:21:31;48.87;;;18.23;;
38901;SDS011;24661;53.566;9.910;2023-02-23T14:24:15;44.37;;;16.17;;
38901;SDS011;24661;53.566;9.910;2023-02-23T14:30:04;40.97;;;16.40;;
38901;SDS011;24661;53.566;9.910;2023-02-23T14:32:37;39.20;;;15.90;;
38901;SDS011;24661;53.566;9.910;2023-02-23T14:35:04;38.27;;;13.97;;
38901;SDS011;24661;53.566;9.910;2023-02-23T14:37:53;35.43;;;13.10;;
38901;SDS011;24661;53.566;9.910;2023-02-23T14:40:31;31.03;;;12.87;;
38901;SDS011;24661;53.566;9.910;2023-02-23T14:43:04;38.20;;;14.43;;
38901;SDS011;24661;53.566;9.910;2023-02-23T14:46:10;36.70;;;13.13;;
38901;SDS011;24661;53.566;9.910;2023-02-23T14:49:00;34.23;;;12.93;;
38901;SDS011;24661;53.566;9.910;2023-02-23T14:51:44;29.37;;;12.57;;
38901;SDS011;24661;53.566;9.910;2023-02-23T14:54:21;34.57;;;13.43;;
38901;SDS011;24661;53.566;9.910;2023-02-23T14:56:47;38.27;;;15.37;;
38901;SDS011;24661;53.566;9.910;2023-02-23T14:59:18;31.67;;;13.60;;
38901;SDS011;24661;53.566;9.910;2023-02-23T15:01:49;35.60;;;13.53;;
38901;SDS011;24661;53.566;9.910;2023-02-23T15:04:20;34.63;;;13.73;;
38901;SDS011;24661;53.566;9.910;2023-02-23T15:06:52;31.33;;;13.20;;
38901;SDS011;24661;53.566;9.910;2023-02-23T15:09:28;35.83;;;14.53;;
38901;SDS011;24661;53.566;9.910;2023-02-23T15:12:02;39.70;;;13.67;;
38901;SDS011;24661;53.566;9.910;2023-02-23T15:14:36;45.57;;;15.40;;
38901;SDS011;24661;53.566;9.910;2023-02-23T15:17:03;44.50;;;14.70;;
38901;SDS011;24661;53.566;9.910;2023-02-23T15:19:32;39.27;;;14.83;;
38901;SDS011;24661;53.566;9.910;2023-02-23T15:22:00;32.30;;;12.27;;
38901;SDS011;24661;53.566;9.910;2023-02-23T15:24:45;37.90;;;13.50;;
38901;SDS011;24661;53.566;9.910;2023-02-23T15:27:17;35.73;;;14.50;;
38901;SDS011;24661;53.566;9.910;2023-02-23T15:29:49;32.77;;;13.10;;
38901;SDS011;24661;53.566;9.910;2023-02-23T15:32:22;30.80;;;11.80;;
38901;SDS011;24661;53.566;9.910;2023-02-23T15:34:50;38.30;;;13.70;;
38901;SDS011;24661;53.566;9.910;2023-02-23T15:37:32;36.83;;;13.53;;
38901;SDS011;24661;53.566;9.910;2023-02-23T15:40:18;35.07;;;14.23;;
38901;SDS011;24661;53.566;9.910;2023-02-23T15:42:48;41.33;;;15.47;;
38901;SDS011;24661;53.566;9.910;2023-02-23T15:47:46;42.43;;;15.33;;
38901;SDS011;24661;53.566;9.910;2023-02-23T15:50:13;40.40;;;14.97;;
38901;SDS011;24661;53.566;9.910;2023-02-23T15:52:47;41.37;;;16.23;;
38901;SDS011;24661;53.566;9.910;2023-02-23T15:55:20;42.40;;;14.90;;
38901;SDS011;24661;53.566;9.910;2023-02-23T15:57:55;37.20;;;15.43;;
38901;SDS011;24661;53.566;9.910;2023-02-23T16:00:28;35.87;;;14.10;;
38901;SDS011;24661;53.566;9.910;2023-02-23T16:03:02;41.53;;;13.27;;
38901;SDS011;24661;53.566;9.910;2023-02-23T16:05:31;33.23;;;14.43;;
38901;SDS011;24661;53.566;9.910;2023-02-23T16:08:05;35.60;;;12.77;;
38901;SDS011;24661;53.566;9.910;2023-02-23T16:10:47;37.10;;;12.93;;
38901;SDS011;24661;53.566;9.910;2023-02-23T16:13:17;47.83;;;12.93;;
38901;SDS011;24661;53.566;9.910;2023-02-23T16:15:45;39.63;;;12.83;;
38901;SDS011;24661;53.566;9.910;2023-02-23T16:18:12;39.83;;;13.63;;
38901;SDS011;24661;53.566;9.910;2023-02-23T16:20:52;39.87;;;13.17;;
38901;SDS011;24661;53.566;9.910;2023-02-23T16:23:23;42.23;;;12.70;;
38901;SDS011;24661;53.566;9.910;2023-02-23T16:25:56;33.97;;;10.63;;
38901;SDS011;24661;53.566;9.910;2023-02-23T16:28:29;25.40;;;8.83;;
38901;SDS011;24661;53.566;9.910;2023-02-23T16:33:28;35.20;;;9.97;;
38901;SDS011;24661;53.566;9.910;2023-02-23T16:41:18;36.07;;;8.63;;
38901;SDS011;24661;53.566;9.910;2023-02-23T16:43:49;42.13;;;8.20;;
38901;SDS011;24661;53.566;9.910;2023-02-23T16:46:17;47.53;;;8.70;;
38901;SDS011;24661;53.566;9.910;2023-02-23T16:48:45;47.63;;;9.73;;
38901;SDS011;24661;53.566;9.910;2023-02-23T16:51:15;47.73;;;9.93;;
38901;SDS011;24661;53.566;9.910;2023-02-23T16:53:42;40.80;;;8.67;;
38901;SDS011;24661;53.566;9.910;2023-02-23T16:56:11;34.80;;;7.73;;
38901;SDS011;24661;53.566;9.910;2023-02-23T16:58:41;34.70;;;7.30;;
38901;SDS011;24661;53.566;9.910;2023-02-23T17:01:11;36.33;;;6.43;;